createdAt,value
2017-09-11T00:01:47.453Z,14.00
2017-09-11T00:04:15.177Z,14.00
2017-09-11T00:06:42.910Z,14.00
2017-09-11T00:09:10.717Z,14.10
2017-09-11T00:11:39.235Z,14.10
2017-09-11T00:14:06.960Z,14.10
2017-09-11T00:16:34.625Z,14.10
2017-09-11T00:19:03.131Z,14.10
2017-09-11T00:21:30.797Z,14.10
2017-09-11T00:23:58.597Z,14.10
2017-09-11T00:26:26.412Z,14.10
2017-09-11T00:28:55.377Z,14.00
2017-09-11T00:31:23.061Z,14.10
2017-09-11T00:33:51.539Z,14.10
2017-09-11T00:36:20.011Z,14.00
2017-09-11T00:38:47.743Z,14.10
2017-09-11T00:41:15.580Z,14.10
2017-09-11T00:43:43.254Z,14.10
2017-09-11T00:46:11.019Z,14.10
2017-09-11T00:48:39.691Z,14.10
2017-09-11T00:51:07.483Z,14.10
2017-09-11T00:53:36.299Z,14.10
2017-09-11T00:56:05.320Z,14.20
2017-09-11T00:58:33.041Z,14.20
2017-09-11T01:01:00.797Z,14.20
2017-09-11T01:03:28.582Z,14.20
2017-09-11T01:05:56.274Z,14.20
2017-09-11T01:08:24.047Z,14.20
2017-09-11T01:10:51.817Z,14.20
2017-09-11T01:13:19.604Z,14.10
2017-09-11T01:21:43.665Z,13.90
2017-09-11T01:24:16.887Z,13.80
2017-09-11T01:26:44.685Z,13.60
2017-09-11T01:35:11.739Z,13.50
2017-09-11T01:37:39.414Z,13.40
2017-09-11T01:40:07.166Z,13.30
2017-09-11T01:42:34.879Z,13.20
2017-09-11T01:45:02.600Z,13.20
2017-09-11T01:47:30.292Z,13.20
2017-09-11T01:49:57.959Z,13.20
2017-09-11T01:52:25.721Z,13.20
2017-09-11T01:54:53.430Z,13.20
2017-09-11T01:57:21.959Z,13.30
2017-09-11T01:59:49.636Z,13.20
2017-09-11T02:02:17.291Z,13.30
2017-09-11T02:04:44.961Z,13.30
2017-09-11T02:07:12.653Z,13.30
2017-09-11T02:09:41.456Z,13.30
2017-09-11T02:12:09.941Z,13.30
2017-09-11T02:14:37.594Z,13.30
2017-09-11T02:17:05.289Z,13.40
2017-09-11T02:19:33.205Z,13.40
2017-09-11T02:22:00.861Z,13.40
2017-09-11T02:24:28.551Z,13.50
2017-09-11T02:27:04.148Z,13.50
2017-09-11T02:29:31.893Z,13.60
2017-09-11T02:31:59.593Z,13.60
2017-09-11T02:34:27.285Z,13.60
2017-09-11T02:36:54.974Z,13.70
2017-09-11T02:39:22.728Z,13.70
2017-09-11T02:41:50.418Z,13.80
2017-09-11T02:44:18.104Z,13.80
2017-09-11T02:46:45.738Z,13.80
2017-09-11T02:49:13.463Z,13.80
2017-09-11T02:51:41.197Z,13.80
2017-09-11T02:54:08.831Z,13.90
2017-09-11T02:56:36.552Z,13.90
2017-09-11T02:59:04.207Z,13.90
2017-09-11T03:01:31.863Z,13.90
2017-09-11T03:04:01.038Z,13.90
2017-09-11T03:06:28.713Z,13.90
2017-09-11T03:08:56.376Z,13.90
2017-09-11T03:11:24.025Z,13.90
2017-09-11T03:13:51.685Z,13.90
2017-09-11T03:16:19.368Z,13.90
2017-09-11T03:18:47.038Z,13.90
2017-09-11T03:21:14.698Z,13.90
2017-09-11T03:23:43.131Z,13.80
2017-09-11T03:26:10.819Z,13.80
2017-09-11T03:28:38.471Z,13.70
2017-09-11T03:31:06.108Z,13.60
2017-09-11T03:33:33.748Z,13.50
2017-09-11T03:36:01.362Z,13.50
2017-09-11T03:41:20.188Z,13.40
2017-09-11T03:43:48.698Z,13.30
2017-09-11T03:46:16.393Z,13.30
2017-09-11T03:48:44.046Z,13.30
2017-09-11T03:51:11.850Z,13.30
2017-09-11T03:53:40.076Z,13.30
2017-09-11T03:56:07.778Z,13.30
2017-09-11T03:58:36.227Z,13.30
2017-09-11T04:01:03.907Z,13.30
2017-09-11T04:03:31.544Z,13.30
2017-09-11T04:05:59.287Z,13.30
2017-09-11T04:08:26.964Z,13.40
2017-09-11T04:10:54.641Z,13.30
2017-09-11T04:13:22.267Z,13.40
2017-09-11T04:15:49.978Z,13.40
2017-09-11T04:18:17.660Z,13.40
2017-09-11T04:20:45.381Z,13.40
2017-09-11T04:23:13.042Z,13.40
2017-09-11T04:25:40.687Z,13.40
2017-09-11T04:28:09.194Z,13.40
2017-09-11T04:30:36.923Z,13.50
2017-09-11T04:33:04.614Z,13.50
2017-09-11T04:35:32.387Z,13.50
2017-09-11T04:38:00.073Z,13.50
2017-09-11T04:40:27.792Z,13.50
2017-09-11T04:42:55.490Z,13.50
2017-09-11T04:45:23.147Z,13.50
2017-09-11T04:47:50.736Z,13.50
2017-09-11T04:50:19.217Z,13.50
2017-09-11T04:52:47.190Z,13.50
2017-09-11T04:55:14.927Z,13.50
2017-09-11T04:57:42.655Z,13.50
2017-09-11T05:00:10.401Z,13.50
2017-09-11T05:02:38.095Z,13.50
2017-09-11T05:05:05.775Z,13.50
2017-09-11T05:07:33.461Z,13.60
2017-09-11T05:10:01.858Z,13.60
2017-09-11T05:12:29.562Z,13.60
2017-09-11T05:14:57.256Z,13.60
2017-09-11T05:17:25.688Z,13.60
2017-09-11T05:19:53.383Z,13.60
2017-09-11T05:22:21.010Z,13.60
2017-09-11T05:24:48.664Z,13.60
2017-09-11T05:27:16.281Z,13.50
2017-09-11T05:29:44.777Z,13.40
2017-09-11T05:32:13.188Z,13.50
2017-09-11T05:34:40.834Z,13.40
2017-09-11T05:37:08.456Z,13.50
2017-09-11T05:39:36.092Z,13.50
2017-09-11T05:42:08.332Z,13.60
2017-09-11T05:44:44.708Z,13.60
2017-09-11T05:47:12.496Z,13.60
2017-09-11T05:49:40.122Z,13.70
2017-09-11T05:52:07.765Z,13.70
2017-09-11T05:54:35.418Z,13.70
2017-09-11T05:57:03.844Z,13.80
2017-09-11T05:59:31.464Z,13.80
2017-09-11T06:01:59.121Z,13.80
2017-09-11T06:04:27.547Z,13.90
2017-09-11T06:06:55.223Z,13.90
2017-09-11T06:09:22.834Z,13.90
2017-09-11T06:11:50.510Z,13.90
2017-09-11T06:14:18.153Z,13.90
2017-09-11T06:17:01.102Z,14.00
2017-09-11T06:19:28.789Z,14.00
2017-09-11T06:21:56.390Z,14.10
2017-09-11T06:24:24.783Z,14.20
2017-09-11T06:26:52.437Z,14.20
2017-09-11T06:29:20.829Z,14.30
2017-09-11T06:31:48.682Z,14.30
2017-09-11T06:34:17.136Z,14.40
2017-09-11T06:36:44.859Z,14.40
2017-09-11T06:39:12.521Z,14.50
2017-09-11T06:41:40.171Z,14.50
2017-09-11T06:44:07.911Z,14.60
2017-09-11T06:46:36.451Z,14.60
2017-09-11T06:49:04.088Z,14.60
2017-09-11T06:51:31.726Z,14.60
2017-09-11T06:54:00.137Z,14.60
2017-09-11T06:56:27.749Z,14.60
2017-09-11T06:58:56.206Z,14.60
2017-09-11T07:01:23.869Z,14.60
2017-09-11T07:03:51.491Z,14.70
2017-09-11T07:06:29.454Z,14.80
2017-09-11T07:08:57.098Z,14.90
2017-09-11T07:11:25.211Z,15.00
2017-09-11T07:13:52.907Z,15.00
2017-09-11T07:16:20.596Z,15.10
2017-09-11T07:18:49.293Z,15.10
2017-09-11T07:21:17.137Z,15.10
2017-09-11T07:23:44.857Z,14.90
2017-09-11T07:26:12.551Z,14.90
2017-09-11T07:28:40.297Z,14.90
2017-09-11T07:31:07.969Z,15.20
2017-09-11T07:33:35.661Z,15.40
2017-09-11T07:36:03.504Z,15.60
2017-09-11T07:38:31.213Z,15.90
2017-09-11T07:40:58.943Z,15.90
2017-09-11T07:43:26.590Z,15.90
2017-09-11T07:45:54.229Z,15.80
2017-09-11T07:48:21.886Z,15.60
2017-09-11T07:50:49.556Z,15.50
2017-09-11T07:53:17.187Z,15.40
2017-09-11T07:55:45.662Z,15.50
2017-09-11T07:58:13.329Z,15.50
2017-09-11T08:00:41.800Z,15.60
2017-09-11T08:03:09.488Z,15.60
2017-09-11T08:05:37.205Z,15.70
2017-09-11T08:08:04.858Z,15.80
2017-09-11T08:10:32.579Z,15.90
2017-09-11T08:13:01.041Z,16.30
2017-09-11T08:15:28.762Z,16.30
2017-09-11T08:17:56.462Z,16.60
2017-09-11T08:20:24.194Z,16.70
2017-09-11T08:22:51.832Z,16.70
2017-09-11T08:25:19.513Z,16.60
2017-09-11T08:27:48.042Z,16.60
2017-09-11T08:30:15.712Z,16.50
2017-09-11T08:32:43.346Z,16.50
2017-09-11T08:35:11.826Z,16.50
2017-09-11T08:37:54.031Z,16.50
2017-09-11T08:40:21.768Z,16.60
2017-09-11T08:42:49.498Z,16.60
2017-09-11T08:45:17.211Z,16.80
2017-09-11T08:47:45.753Z,17.00
2017-09-11T08:50:13.402Z,17.00
2017-09-11T08:52:41.120Z,17.10
2017-09-11T08:55:08.839Z,17.10
2017-09-11T08:57:37.384Z,17.20
2017-09-11T09:00:05.202Z,17.00
2017-09-11T09:02:32.914Z,17.00
2017-09-11T09:05:00.720Z,16.90
2017-09-11T09:07:28.467Z,16.80
2017-09-11T09:09:56.156Z,16.50
2017-09-11T09:12:23.931Z,16.40
2017-09-11T09:14:51.657Z,16.30
2017-09-11T09:17:19.442Z,16.10
2017-09-11T09:19:47.243Z,16.20
2017-09-11T09:22:15.005Z,16.30
2017-09-11T09:24:51.378Z,16.50
2017-09-11T09:27:23.004Z,16.80
2017-09-11T09:29:50.733Z,17.10
2017-09-11T09:32:26.399Z,17.20
2017-09-11T09:34:54.181Z,17.20
2017-09-11T09:37:26.952Z,17.20
2017-09-11T09:40:07.225Z,17.30
2017-09-11T09:45:41.676Z,17.50
2017-09-11T09:48:13.047Z,17.80
2017-09-11T09:50:42.030Z,17.60
2017-09-11T09:53:09.947Z,17.30
2017-09-11T09:55:38.499Z,16.90
2017-09-11T09:58:08.375Z,16.70
2017-09-11T10:00:41.504Z,16.50
2017-09-11T10:03:10.124Z,16.50
2017-09-11T10:05:55.123Z,16.40
2017-09-11T10:08:27.089Z,16.50
2017-09-11T10:10:55.591Z,16.80
2017-09-11T10:13:24.301Z,16.70
2017-09-11T10:15:54.015Z,16.80
2017-09-11T10:18:23.264Z,16.80
2017-09-11T10:20:51.913Z,16.80
2017-09-11T10:23:21.204Z,16.70
2017-09-11T10:25:49.127Z,16.70
2017-09-11T10:28:25.554Z,16.80
2017-09-11T10:30:56.707Z,16.90
2017-09-11T10:33:24.504Z,17.00
2017-09-11T10:35:53.763Z,17.10
2017-09-11T10:38:22.394Z,17.10
2017-09-11T10:40:50.156Z,17.10
2017-09-11T10:43:18.692Z,17.30
2017-09-11T10:45:46.519Z,17.30
2017-09-11T10:48:14.286Z,17.40
2017-09-11T10:50:59.083Z,17.10
2017-09-11T10:53:27.300Z,17.00
2017-09-11T10:55:57.583Z,16.90
2017-09-11T10:58:28.361Z,17.00
2017-09-11T11:00:57.084Z,17.30
2017-09-11T11:03:24.813Z,17.70
2017-09-11T11:05:52.499Z,18.00
2017-09-11T11:08:20.169Z,18.20
2017-09-11T11:13:38.940Z,18.30
2017-09-11T11:16:06.764Z,18.40
2017-09-11T11:18:34.434Z,18.70
2017-09-11T11:21:02.565Z,18.80
2017-09-11T11:23:41.679Z,18.40
2017-09-11T11:26:09.545Z,18.30
2017-09-11T11:28:38.030Z,18.80
2017-09-11T11:31:06.775Z,19.00
2017-09-11T11:33:34.543Z,19.00
2017-09-11T11:36:02.363Z,19.30
2017-09-11T11:38:30.794Z,19.80
2017-09-11T11:40:58.482Z,20.30
2017-09-11T11:43:26.958Z,20.40
2017-09-11T11:45:55.401Z,20.40
2017-09-11T11:48:24.132Z,20.70
2017-09-11T11:50:52.080Z,20.70
2017-09-11T11:53:19.807Z,20.50
2017-09-11T11:55:47.523Z,20.20
2017-09-11T11:58:15.994Z,20.70
2017-09-11T12:00:43.662Z,20.70
2017-09-11T12:03:11.355Z,20.30
2017-09-11T12:05:39.083Z,19.50
2017-09-11T12:08:08.354Z,19.30
2017-09-11T12:10:36.431Z,19.20
2017-09-11T12:13:04.087Z,20.10
2017-09-11T12:15:31.717Z,21.00
2017-09-11T12:17:59.342Z,22.10
2017-09-11T12:23:17.261Z,21.90
2017-09-11T12:25:44.897Z,22.70
2017-09-11T12:28:12.655Z,23.20
2017-09-11T12:30:40.281Z,23.60
2017-09-11T12:33:08.835Z,23.20
2017-09-11T12:35:36.528Z,22.20
2017-09-11T12:38:04.225Z,21.50
2017-09-11T13:19:28.529Z,19.50
2017-09-11T13:21:56.206Z,19.00
2017-09-11T13:24:37.181Z,18.60
2017-09-11T13:27:08.864Z,18.20
2017-09-11T13:29:36.783Z,17.80
2017-09-11T13:32:08.033Z,17.40
2017-09-11T13:34:36.862Z,17.20
2017-09-11T13:39:42.695Z,17.70
2017-09-11T13:44:45.169Z,17.70
2017-09-11T13:55:48.199Z,18.40
2017-09-11T13:58:36.853Z,18.30
2017-09-11T14:01:05.537Z,18.30
2017-09-11T14:03:33.296Z,18.30
2017-09-11T14:06:01.056Z,18.30
2017-09-11T14:08:28.839Z,18.20
2017-09-11T14:10:56.505Z,18.20
2017-09-11T14:13:24.242Z,18.30
2017-09-11T14:15:52.008Z,18.30
2017-09-11T14:18:19.778Z,18.50
2017-09-11T14:20:47.522Z,18.60
2017-09-11T14:23:15.264Z,18.60
2017-09-11T14:25:43.016Z,18.60
2017-09-11T14:28:11.577Z,18.40
2017-09-11T14:30:39.301Z,18.40
2017-09-11T14:33:07.414Z,18.30
2017-09-11T14:59:29.314Z,19.00
2017-09-11T15:01:56.992Z,18.90
2017-09-11T15:04:24.860Z,19.10
2017-09-11T15:06:52.532Z,19.10
2017-09-11T15:09:21.288Z,19.10
2017-09-11T15:11:48.961Z,19.20
2017-09-11T15:14:16.898Z,19.00
2017-09-11T15:16:44.684Z,19.00
2017-09-11T15:19:12.449Z,19.20
2017-09-11T15:21:40.166Z,19.10
2017-09-11T15:24:07.831Z,19.10
2017-09-11T15:26:36.492Z,19.10
2017-09-11T15:29:04.261Z,19.10
2017-09-11T15:31:32.706Z,18.70
2017-09-11T15:34:00.374Z,18.70
2017-09-11T15:36:28.058Z,18.60
2017-09-11T15:38:56.527Z,18.40
2017-09-11T15:41:25.001Z,18.30
2017-09-11T15:43:53.487Z,18.20
2017-09-11T15:46:21.239Z,18.20
2017-09-11T15:48:49.024Z,18.10
2017-09-11T15:51:17.491Z,17.90
2017-09-11T15:53:45.997Z,17.80
2017-09-11T15:59:05.271Z,17.80
2017-09-11T16:01:33.001Z,17.80
2017-09-11T16:04:00.729Z,17.80
2017-09-11T16:06:28.939Z,17.80
2017-09-11T16:08:56.565Z,17.80
2017-09-11T16:11:24.244Z,17.80
2017-09-11T16:13:51.940Z,17.80
2017-09-11T16:16:19.649Z,17.90
2017-09-11T16:18:47.355Z,17.90
2017-09-11T16:21:15.044Z,17.90
2017-09-11T16:23:43.526Z,17.60
2017-09-11T16:26:12.026Z,17.40
2017-09-11T16:28:39.702Z,17.40
2017-09-11T16:31:08.066Z,17.60
2017-09-11T16:33:36.500Z,17.70
2017-09-11T16:36:04.219Z,17.70
2017-09-11T16:38:31.887Z,17.80
2017-09-11T16:40:59.558Z,17.80
2017-09-11T16:43:27.229Z,17.70
2017-09-11T16:46:03.467Z,17.70
2017-09-11T16:48:31.166Z,18.40
2017-09-11T16:50:58.886Z,18.70
2017-09-11T16:53:26.587Z,18.40
2017-09-11T16:55:54.258Z,18.00
2017-09-11T16:58:21.917Z,17.80
2017-09-11T17:00:49.572Z,17.50
2017-09-11T17:03:17.259Z,17.30
2017-09-11T17:05:44.925Z,17.00
2017-09-11T17:08:12.617Z,16.70
2017-09-11T17:10:41.044Z,16.40
2017-09-11T17:13:08.734Z,16.40
2017-09-11T17:15:36.372Z,16.30
2017-09-11T17:18:04.019Z,16.20
2017-09-11T17:20:31.675Z,16.10
2017-09-11T17:22:59.365Z,16.00
2017-09-11T17:25:27.046Z,15.90
2017-09-11T17:27:54.789Z,15.90
2017-09-11T17:30:22.513Z,15.80
2017-09-11T17:32:50.160Z,15.80
2017-09-11T17:35:18.637Z,15.70
2017-09-11T17:37:47.871Z,15.60
2017-09-11T17:40:15.547Z,15.60
2017-09-11T17:42:43.230Z,15.50
2017-09-11T17:45:10.897Z,15.40
2017-09-11T17:47:38.663Z,15.30
2017-09-11T17:50:06.342Z,15.20
2017-09-11T17:52:33.989Z,15.20
2017-09-11T17:55:01.655Z,15.20
2017-09-11T17:57:30.132Z,15.30
2017-09-11T17:59:57.783Z,15.30
2017-09-11T18:02:25.415Z,15.30
2017-09-11T18:04:53.113Z,15.30
2017-09-11T18:07:20.805Z,15.20
2017-09-11T18:09:48.411Z,15.20
2017-09-11T18:12:30.837Z,15.20
2017-09-11T18:14:58.591Z,15.30
2017-09-11T18:17:26.276Z,15.30
2017-09-11T18:19:53.945Z,15.30
2017-09-11T18:22:21.614Z,15.20
2017-09-11T18:24:49.763Z,15.30
2017-09-11T18:27:17.399Z,15.30
2017-09-11T18:29:45.088Z,15.30
2017-09-11T18:32:12.829Z,15.30
2017-09-11T18:34:40.548Z,15.30
2017-09-11T18:37:08.318Z,15.30
2017-09-11T18:39:36.069Z,15.30
2017-09-11T18:42:04.516Z,15.30
2017-09-11T18:44:32.231Z,15.20
2017-09-11T18:47:00.711Z,15.20
2017-09-11T18:49:29.135Z,15.20
2017-09-11T18:51:56.813Z,15.20
2017-09-11T18:54:24.490Z,15.20
2017-09-11T18:56:52.128Z,15.20
2017-09-11T18:59:19.791Z,15.20
2017-09-11T19:01:47.413Z,15.20
2017-09-11T19:04:15.059Z,15.20
2017-09-11T19:06:43.451Z,15.20
2017-09-11T19:09:11.061Z,15.20
2017-09-11T19:11:38.672Z,15.20
2017-09-11T19:14:06.286Z,15.20
2017-09-11T19:16:33.914Z,15.20
2017-09-11T19:19:01.547Z,15.20
2017-09-11T19:21:30.843Z,15.10
2017-09-11T19:23:58.432Z,15.10
2017-09-11T19:26:26.169Z,15.00
2017-09-11T19:28:54.059Z,15.00
2017-09-11T19:34:12.030Z,15.00
2017-09-11T19:36:39.720Z,15.00
2017-09-11T19:39:07.364Z,15.00
2017-09-11T19:41:35.038Z,15.00
2017-09-11T19:44:02.711Z,15.00
2017-09-11T19:46:34.990Z,15.00
2017-09-11T19:49:02.844Z,15.00
2017-09-11T19:51:31.430Z,15.00
2017-09-11T19:54:03.254Z,15.10
2017-09-11T19:56:30.921Z,15.10
2017-09-11T19:58:58.816Z,15.10
2017-09-11T20:01:26.558Z,15.10
2017-09-11T20:03:54.223Z,15.00
2017-09-11T20:06:21.892Z,15.00
2017-09-11T20:08:49.534Z,14.90
2017-09-11T20:11:17.915Z,14.90
2017-09-11T20:13:45.742Z,14.80
2017-09-11T20:16:13.443Z,14.70
2017-09-11T20:18:41.248Z,14.70
2017-09-11T20:21:14.671Z,14.60
2017-09-11T20:23:42.332Z,14.60
2017-09-11T20:26:12.148Z,14.60
2017-09-11T20:28:39.876Z,14.60
2017-09-11T20:31:09.622Z,14.60
2017-09-11T20:33:38.044Z,14.60
2017-09-11T20:36:05.698Z,14.60
2017-09-11T20:41:23.784Z,14.60
2017-09-11T20:43:51.914Z,14.60
2017-09-11T20:46:19.685Z,14.60
2017-09-11T20:48:47.679Z,14.50
2017-09-11T20:51:15.369Z,14.50
2017-09-11T20:53:42.977Z,14.40
2017-09-11T20:56:10.593Z,14.40
2017-09-11T20:58:38.237Z,14.50
2017-09-11T21:01:05.948Z,14.50
2017-09-11T21:03:33.586Z,14.60
2017-09-11T21:06:02.091Z,14.60
2017-09-11T21:08:29.781Z,14.60
2017-09-11T21:10:57.506Z,14.60
2017-09-11T21:13:25.145Z,14.70
2017-09-11T21:15:52.799Z,14.70
2017-09-11T21:18:20.450Z,14.70
2017-09-11T21:20:53.000Z,14.70
2017-09-11T21:23:21.342Z,14.70
2017-09-11T21:25:49.742Z,14.70
2017-09-11T21:28:17.395Z,14.70
2017-09-11T21:30:45.082Z,14.70
2017-09-11T21:33:12.777Z,14.70
2017-09-11T21:35:40.467Z,14.80
2017-09-11T21:38:08.231Z,14.80
2017-09-11T21:40:36.682Z,14.80
2017-09-11T21:43:04.449Z,14.70
2017-09-11T21:45:32.200Z,14.80
2017-09-11T21:47:59.899Z,14.70
2017-09-11T21:50:27.657Z,14.80
2017-09-11T21:52:56.079Z,14.70
2017-09-11T21:55:23.764Z,14.80
2017-09-11T21:57:51.417Z,14.70
2017-09-11T22:00:19.048Z,14.70
2017-09-11T22:02:46.687Z,14.70
2017-09-11T22:05:15.087Z,14.70
2017-09-11T22:07:42.777Z,14.70
2017-09-11T22:10:17.849Z,14.70
2017-09-11T22:12:46.306Z,14.60
2017-09-11T22:15:13.957Z,14.60
2017-09-11T22:17:41.636Z,14.50
2017-09-11T22:20:09.285Z,14.50
2017-09-11T22:22:36.962Z,14.40
2017-09-11T22:25:04.582Z,14.30
2017-09-11T22:27:32.193Z,14.30
2017-09-11T22:29:59.800Z,14.20
2017-09-11T22:32:27.445Z,14.20
2017-09-11T22:34:55.838Z,14.30
2017-09-11T22:37:23.479Z,14.20
2017-09-11T22:39:51.862Z,14.30
2017-09-11T22:42:20.247Z,14.30
2017-09-11T22:47:39.025Z,14.30
2017-09-11T22:50:06.735Z,14.40
2017-09-11T22:52:34.358Z,14.40
2017-09-11T22:55:01.984Z,14.40
2017-09-11T22:57:29.608Z,14.40
2017-09-11T22:59:57.203Z,14.40
2017-09-11T23:02:24.821Z,14.40
2017-09-11T23:04:52.456Z,14.40
2017-09-11T23:07:20.823Z,14.50
2017-09-11T23:09:49.214Z,14.50
2017-09-11T23:12:17.583Z,14.50
2017-09-11T23:14:45.959Z,14.50
2017-09-11T23:17:14.328Z,14.50
2017-09-11T23:19:42.730Z,14.50
2017-09-11T23:22:10.346Z,14.40
2017-09-11T23:24:37.957Z,14.40
2017-09-11T23:27:05.545Z,14.40
2017-09-11T23:29:33.162Z,14.40
2017-09-11T23:32:01.530Z,14.40
2017-09-11T23:34:29.948Z,14.30
2017-09-11T23:36:57.571Z,14.30
2017-09-11T23:39:25.180Z,14.30
2017-09-11T23:41:52.790Z,14.20
2017-09-11T23:44:20.386Z,14.30
2017-09-11T23:46:47.988Z,14.30
2017-09-11T23:49:15.590Z,14.40
2017-09-11T23:51:43.958Z,14.40
2017-09-11T23:54:12.327Z,14.40
2017-09-11T23:56:39.922Z,14.40
2017-09-11T23:59:07.526Z,14.40
